^^

METAR Αεροδρομίων

σε ακτίνα 500 χλμ


 Τι είναι το METAR ??? 

Πρώτο είναι το πλησιέστερο αεροδρόμιο (Θεσ/νίκη LGTS 6χλμ) και
τέλος το πιο απομακρυσμένο (Κων/πολη LTBA 494χλμ).
Επίσης μερικές αναφορές, παρουσιάζουν λιγότερα στοιχεία γιατί
οι αρχικές είναι ελλιπείς ή έχουν λάθος μορφοποίηση.
Πηγαίνετε στις Αναφορές METAR από Μετεωρολογικούς Σταθμούς )  
Αλφαβητική Λίστα Γρήγορης Μετάβασης στα 48 Αεροδρόμια
Αλβανία: Τίρανα  Βουλγαρία: Γκόρνα Οριαχόβιτσα  Μπουργκάς  Σόφια  Φιλιππούπολη  Ελλάδα: Αθήνα  Αλεξανδρούπολη  Ανδραβίδα  Βόλος  Ελευσίνα  Ζάκυνθος  Θεσσαλονίκη  Ιωάννινα  Καβάλα  Καλαμάτα  Κέρκυρα  Κεφαλονιά  Κοζάνη  Κύθηρα
Λέσβος  Λήμνος  Μύκονος  Νάξος  Πάρος  Πάτρα  Πρέβεζα  Σάμος  Σκιάθος  Σκύρος  Σύρος  Χίος  Ιταλία: Γκαλατίνα  Μπρίντιζι  Σάντα Μαρία ντι Λέουκα  Ταράντο  Κόσοβο: Πρίστινα  Κροατία: Ντουμπρόβνικ  Μαυροβούνιο: Ποντγκόριτσα  Τιβάτ
Δ.Β.Μ: Οχρίδα  Σκόπια  Ρουμανία: Κραϊόβα  Σερβία: Κράλιεβο  Νις  Ούζιτσε  Τουρκία: Κωνσταντινούπολη  Σμύρνη Τσορλού 
(ΒΠΑ)Βάση Πολεμικής Αεροπορίας
LGTS - Αεροδρόμιο "Μακεδονία"
Θεσσαλονίκη - Κεντρική Μακεδονία - Ελλάδα
Γ.Πλάτ: 40.5167 - Γ.Μήκ: 22.9667 - Υψόμ: 7μ
Απόσταση από το Vouhead Weather: (Ν) 6χλμ
Ενημερώθηκε: 03/12/2022 00:20
Κυρίως νεφελώδης
Κυρίως νεφελώδης
 Άνεμος από Α
Άνεμος: Α 7 km/h
Θερμοκρασία: 9°C
Ψυχρότητα Ανέμου: 8°C
Σημείο δρόσου: 9°C
Υγρασία: 100%
Βαρόμετρο: 1024 hPa
Σύννεφα: Κυρίως νεφελώδης
Ορατότητα: 10 km
Ανάλυση Νέφωσης: Διάσπαρτα νέφη 457 m
Κυρίως νεφελώδης 914 m
2022/12/02 22:20 LGTS 022220Z 09004KT 9999 FEW015 BKN030 09/09 Q1024 NOSIG
LGKZ - Αεροδρόμιο "Φίλιππος"
Κοζάνη - Δυτική Μακεδονία - Ελλάδα
Γ.Πλάτ: 40.2833 - Γ.Μήκ: 21.8333 - Υψόμ: 628μ
Απόσταση από το Vouhead Weather: (ΔΝΔ) 102χλμ
Ενημερώθηκε: 03/12/2022 00:20
Εντονα πτωτική
Εντονα πτωτική
 Άνεμος από Μεταβλητός
Άνεμος: Μεταβλητός 6 km/h
Θερμοκρασία: 7°C
Σημείο δρόσου: 7°C
Υγρασία: 100%
Βαρόμετρο: 1023 hPa
2022/12/02 22:20 LGKZ 022220Z AUTO VRB03KT //// // ////// 07/07 Q1023 RE//
 
LGKV - Αεροδρόμιο "Μέγας Αλέξανδρος"
Καβάλα(Χρυσούπολη) - Α. Μακεδονία & Θράκη - Ελλάδα
Γ.Πλάτ: 40.9167 - Γ.Μήκ: 24.6167 - Υψόμ: 5μ
Απόσταση από το Vouhead Weather: (ΑΒΑ) 144χλμ
Ενημερώθηκε: 02/12/2022 21:20
ΜΗ ΠΡΟΣΦΑΤΟ METAR
Μερικώς νεφελώδης
Μερικώς νεφελώδης
 Άνεμος από ΒΒΑ
Άνεμος: ΒΒΑ 9 km/h
Θερμοκρασία: 10°C
Ψυχρότητα Ανέμου: 9°C
Σημείο δρόσου: 8°C
Υγρασία: 88%
Βαρόμετρο: 1023 hPa
Σύννεφα: Μερικώς νεφελώδης
Ορατότητα: 10 km
Ανάλυση Νέφωσης: Διάσπαρτα νέφη 549 m
Μερικώς νεφελώδης 2134 m
2022/12/02 19:20 LGKV 021920Z 03005KT 9999 FEW018 SCT070 10/08 Q1023
LGBL - Αεροδρόμιο στη Νέα Αγχίαλο
Βόλος(Αλμυρός) - Θεσσαλία - Ελλάδα
Γ.Πλάτ: 39.2167 - Γ.Μήκ: 22.8000 - Υψόμ: 26μ
Απόσταση από το Vouhead Weather: (Ν) 151χλμ
Ενημερώθηκε: 02/12/2022 23:50
Κυρίως νεφελώδης
Κυρίως νεφελώδης
 Άνεμος από calm
Άνεμος: Απνοια
Θερμοκρασία: 11°C
Σημείο δρόσου: 10°C
Υγρασία: 94%
Βαρόμετρο: 1023 hPa
Σύννεφα: Κυρίως νεφελώδης
Ορατότητα: 10 km
Ανάλυση Νέφωσης: Διάσπαρτα νέφη 305 m
Κυρίως νεφελώδης 762 m
2022/12/02 21:50 LGBL 022150Z 00000KT 9999 FEW010 BKN025 11/10 Q1023
 
LGSK - Αεροδρόμ. "Αλέξανδρος Παπαδιαμάντης"
Σκιάθος - Θεσσαλία(Σποράδες) - Ελλάδα
Γ.Πλάτ: 39.1833 - Γ.Μήκ: 23.5000 - Υψόμ: 15μ
Απόσταση από το Vouhead Weather: (ΝΝΑ) 160χλμ
Ενημερώθηκε: 02/12/2022 16:50
ΜΗ ΠΡΟΣΦΑΤΟ METAR
Διάσπαρτα νέφη
Διάσπαρτα νέφη
 Άνεμος από Μεταβλητός
Άνεμος: Μεταβλητός 6 km/h
Θερμοκρασία: 13°C
Σημείο δρόσου: 10°C
Υγρασία: 82%
Βαρόμετρο: 1020 hPa
Σύννεφα: Διάσπαρτα νέφη
Ορατότητα: 10 km
Ανάλυση Νέφωσης: Διάσπαρτα νέφη 610 m
2022/12/02 14:50 LGSK 021450Z VRB03KT 9999 FEW020 13/10 Q1020
LWSK - Αεροδρόμιο "Σκόπγιε Ιντερνάσιοναλ Έιρπορτ"
Σκόπια(Πέτροβακ) - Περιφέρεια Σκοπίων - Δ.Β.Μ
Γ.Πλάτ: 41.9667 - Γ.Μήκ: 21.6333 - Υψόμ: 239μ
Απόσταση από το Vouhead Weather: (ΒΔ) 192χλμ
Ενημερώθηκε: 03/12/2022 00:00
Κυρίως νεφελώδης
Κυρίως νεφελώδης
 Άνεμος από Ν
Άνεμος: Ν 4 km/h
Θερμοκρασία: 6°C
Σημείο δρόσου: 5°C
Υγρασία: 93%
Βαρόμετρο: 1025 hPa
Σύννεφα: Κυρίως νεφελώδης
Ορατότητα: 10 km
Ανάλυση Νέφωσης: Κυρίως νεφελώδης 701 m
2022/12/02 22:00 LWSK 022200Z 17002KT 9999 BKN023 06/05 Q1025 NOSIG
 
LWOH - Αεροδρόμιο "Σεντ Πολ Δε Απόστλ"
Οχρίδα - Νοτιοδυτική Περιφέρεια - Δ.Β.Μ
Γ.Πλάτ: 41.9667 - Γ.Μήκ: 21.6333 - Υψόμ: 239μ
Απόσταση από το Vouhead Weather: (ΔΒΔ) 193χλμ
Ενημερώθηκε: 02/12/2022 22:00
ΜΗ ΠΡΟΣΦΑΤΟ METAR
Διάσπαρτα νέφη
Διάσπαρτα νέφη
 Άνεμος από ΒΔ
Άνεμος: ΒΔ 6 km/h
Θερμοκρασία: 3°C
Σημείο δρόσου: 1°C
Υγρασία: 87%
Βαρόμετρο: 1021 hPa
Σύννεφα: Διάσπαρτα νέφη
Ορατότητα: 10 km
Ανάλυση Νέφωσης: Διάσπαρτα νέφη 1006 m
2022/12/02 20:00 LWOH 022000Z 31003KT 9999 FEW033 03/01 Q1021
LGLM - Αεροδρόμιο "Ήφαιστος"
Λήμνος - Βόρειο Αιγαίο - Ελλάδα
Γ.Πλάτ: 39.9167 - Γ.Μήκ: 25.2333 - Υψόμ: 5μ
Απόσταση από το Vouhead Weather: (ΑΝΑ) 205χλμ
Ενημερώθηκε: 02/12/2022 22:50
ΜΗ ΠΡΟΣΦΑΤΟ METAR
Κυρίως νεφελώδης
Κυρίως νεφελώδης
 Άνεμος από ΑΒΑ
Άνεμος: ΑΒΑ 9 km/h
Θερμοκρασία: 11°C
Σημείο δρόσου: 9°C
Υγρασία: 88%
Βαρόμετρο: 1023 hPa
Σύννεφα: Κυρίως νεφελώδης
Ορατότητα: 10 km
Ανάλυση Νέφωσης: Διάσπαρτα νέφη 366 m
Κυρίως νεφελώδης 610 m
2022/12/02 20:50 LGLM 022050Z 06005KT 9999 FEW012 BKN020 11/09 Q1023
 
LGIO - Αεροδρόμιο "Βασιλεύς Πύρρος"
Ιωάννινα - Ήπειρος - Ελλάδα
Γ.Πλάτ: 39.7000 - Γ.Μήκ: 20.8167 - Υψόμ: 476μ
Απόσταση από το Vouhead Weather: (ΔΝΔ) 207χλμ
Ενημερώθηκε: 03/12/2022 00:20
Εντονα πτωτική
Εντονα πτωτική
 Άνεμος από calm
Άνεμος: Απνοια
Θερμοκρασία: 5°C
Σημείο δρόσου: 5°C
Υγρασία: 100%
Βαρόμετρο: 1022 hPa
2022/12/02 22:20 LGIO 022220Z AUTO 00000KT //// // ////// 05/05 Q1022 RE//
LGSY - Αεροδρόμιο στη Σκύρο
Σκύρος - Θεσσαλία(Σποράδες) - Ελλάδα
Γ.Πλάτ: 38.9667 - Γ.Μήκ: 24.4833 - Υψόμ: 15μ
Απόσταση από το Vouhead Weather: (ΝΑ) 220χλμ
Ενημερώθηκε: 02/12/2022 19:50
ΜΗ ΠΡΟΣΦΑΤΟ METAR
Μερικώς νεφελώδης
Μερικώς νεφελώδης
 Άνεμος από ΒΑ
Άνεμος: ΒΑ 9 km/h
Θερμοκρασία: 14°C
Σημείο δρόσου: 11°C
Υγρασία: 82%
Βαρόμετρο: 1022 hPa
Σύννεφα: Μερικώς νεφελώδης
Ορατότητα: 10 km
Ανάλυση Νέφωσης: Μερικώς νεφελώδης 610 m
2022/12/02 17:50 LGSY 021750Z 05005KT 9999 SCT020 14/11 Q1022 BLU
 
LBPD - Αεροδρόμιο στη Φιλιππούπολη
Φιλιππούπολη(Κρούμοβο) - Πλόβντιβ - Βουλγαρία
Γ.Πλάτ: 42.1333 - Γ.Μήκ: 24.8000 - Υψόμ: 185μ
Απόσταση από το Vouhead Weather: (ΒΑ) 231χλμ
Ενημερώθηκε: 03/12/2022 00:30
Νεφοσκεπής
Νεφοσκεπής
 Άνεμος από Μεταβλητός
Άνεμος: Μεταβλητός 4 km/h
Θερμοκρασία: 7°C
Σημείο δρόσου: 7°C
Υγρασία: 100%
Βαρόμετρο: 1025 hPa
Σύννεφα: Νεφοσκεπής
Ορατότητα: 10 km
Ανάλυση Νέφωσης: Νεφοσκεπής 1707 m
2022/12/02 22:30 LBPD 022230Z AUTO VRB02KT 9999 OVC056/// 07/07 Q1025
LBSF - Αεροδρόμιο στη Σόφια
Σόφια(Βράτσντεμπνα) - Μητρ. περ. Σόφιας - Βουλγαρία
Γ.Πλάτ: 42.6500 - Γ.Μήκ: 23.3833 - Υψόμ: 595μ
Απόσταση από το Vouhead Weather: (Β) 234χλμ
Ενημερώθηκε: 03/12/2022 00:30
Νεφοσκεπής
Νεφοσκεπής
 Άνεμος από calm
Άνεμος: Απνοια
Θερμοκρασία: 5°C
Σημείο δρόσου: 4°C
Υγρασία: 93%
Βαρόμετρο: 1024 hPa
Σύννεφα: Νεφοσκεπής
Ορατότητα: 8 km
Ανάλυση Νέφωσης: Νεφοσκεπής 366 m
2022/12/02 22:30 LBSF 022230Z AUTO 00000KT 8000 OVC012/// 05/04 Q1024 NOSIG
 
LGAL - Αεροδρόμιο "Δημόκριτος"
Αλεξανδρούπολη - Α. Μακεδονία & Θράκη - Ελλάδα
Γ.Πλάτ: 40.8500 - Γ.Μήκ: 25.9167 - Υψόμ: 3μ
Απόσταση από το Vouhead Weather: (Α) 250χλμ
Ενημερώθηκε: 02/12/2022 23:50
Μερικώς νεφελώδης
Μερικώς νεφελώδης
 Άνεμος από Α
Άνεμος: Α 9 km/h
Θερμοκρασία: 8°C
Ψυχρότητα Ανέμου: 6°C
Σημείο δρόσου: 6°C
Υγρασία: 87%
Βαρόμετρο: 1024 hPa
Σύννεφα: Μερικώς νεφελώδης
Ορατότητα: 10 km
Ανάλυση Νέφωσης: Μερικώς νεφελώδης 914 m
2022/12/02 21:50 LGAL 022150Z 08005KT 9999 SCT030 08/06 Q1024
BKPR - Αεροδρόμιο "Αντεμ Γιασάρι"
Πρίστινα - Πρίστινα - Κόσοβο
(Ελληνικό Υπουργείο Εξωτερικών, σχετικά με το Κόσοβο)
Γ.Πλάτ: 42.5833 - Γ.Μήκ: 21.0333 - Υψόμ: 576μ
Απόσταση από το Vouhead Weather: (ΒΔ) 276χλμ
Ενημερώθηκε: 03/12/2022 00:30
Νεφοσκεπής
Νεφοσκεπής
 Άνεμος από Μεταβλητός
Άνεμος: Μεταβλητός 4 km/h
Θερμοκρασία: 5°C
Σημείο δρόσου: 4°C
Υγρασία: 93%
Βαρόμετρο: 1023 hPa
Σύννεφα: Νεφοσκεπής
Ορατότητα: 10 km
Ανάλυση Νέφωσης: Κυρίως νεφελώδης 274 m
Νεφοσκεπής 305 m
2022/12/02 22:30 BKPR 022230Z VRB02KT 9999 BKN009 OVC010 05/04 Q1023 NOSIG
 
LGKR - Αεροδρόμιο "Ιωάννης Καποδίστριας"
Κέρκυρα - Ιόνιοι Νήσοι - Ελλάδα
Γ.Πλάτ: 39.6000 - Γ.Μήκ: 19.9167 - Υψόμ: 2μ
Απόσταση από το Vouhead Weather: (ΔΝΔ) 281χλμ
Ενημερώθηκε: 03/12/2022 00:20
Μερικώς νεφελώδης
Μερικώς νεφελώδης
 Άνεμος από calm
Άνεμος: Απνοια
Θερμοκρασία: 10°C
Σημείο δρόσου: 9°C
Υγρασία: 94%
Βαρόμετρο: 1020 hPa
Σύννεφα: Μερικώς νεφελώδης
Ορατότητα: 10 km
Ανάλυση Νέφωσης: Μερικώς νεφελώδης 610 m
2022/12/02 22:20 LGKR 022220Z 00000KT 9999 SCT020 10/09 Q1020 NOSIG
LATI - Αεροδρόμιο "Μάδερ Τερέζα"
Τίρανα(Ρίνα) - Τίρανα - Αλβανία
Γ.Πλάτ: 41.3167 - Γ.Μήκ: 19.7667 - Υψόμ: 90μ
Απόσταση από το Vouhead Weather: (ΔΒΔ) 282χλμ
Ενημερώθηκε: 03/12/2022 00:20
Μερικώς νεφελώδης
Μερικώς νεφελώδης
 Άνεμος από ΝΑ
Άνεμος: ΝΑ 6 km/h
Θερμοκρασία: 9°C
Σημείο δρόσου: 8°C
Υγρασία: 94%
Βαρόμετρο: 1021 hPa
Σύννεφα: Μερικώς νεφελώδης
Ορατότητα: 7 km
2022/12/02 22:20 LATI 022220Z 13003KT 7000 NSC 09/08 Q1021 NOSIG
 
LGEL - Αεροδρόμιο στην Ελευσίνα(ΒΠΑ)
Ελευσίνα - Αττική - Ελλάδα
Γ.Πλάτ: 38.0667 - Γ.Μήκ: 23.5500 - Υψόμ: 31μ
Απόσταση από το Vouhead Weather: (Ν) 282χλμ
Ενημερώθηκε: 03/12/2022 00:20
Διάσπαρτα νέφη
Διάσπαρτα νέφη
 Άνεμος από calm
Άνεμος: Απνοια
Θερμοκρασία: 12°C
Σημείο δρόσου: 9°C
Υγρασία: 82%
Βαρόμετρο: 1022 hPa
Σύννεφα: Διάσπαρτα νέφη
Ορατότητα: 10 km
Ανάλυση Νέφωσης: Διάσπαρτα νέφη 762 m
2022/12/02 22:20 LGEL 022220Z 00000KT 9999 FEW025 12/09 Q1022
LGPZ - Αεροδρόμιο στη Πρέβεζα
Πρέβεζα(Ακτιον) - Ήπειρος - Ελλάδα
Γ.Πλάτ: 38.6167 - Γ.Μήκ: 20.7667 - Υψόμ: 4μ
Απόσταση από το Vouhead Weather: (ΝΔ) 288χλμ
Ενημερώθηκε: 02/12/2022 23:50
Διάσπαρτα νέφη
Διάσπαρτα νέφη
 Άνεμος από ΒΑ
Άνεμος: ΒΑ 11 km/h
Θερμοκρασία: 12°C
Σημείο δρόσου: 11°C
Υγρασία: 94%
Βαρόμετρο: 1021 hPa
Σύννεφα: Διάσπαρτα νέφη
Ορατότητα: 10 km
Ανάλυση Νέφωσης: Διάσπαρτα νέφη 610 m
2022/12/02 21:50 LGPZ 022150Z 05006KT 9999 FEW020 12/11 Q1021
 
LGRX - Αεροδρόμιο στη Πάτρα(ΒΠΑ)
Πάτρα(Αραξος) - Δυτική Ελλάδα - Ελλάδα
Γ.Πλάτ: 38.1667 - Γ.Μήκ: 21.4167 - Υψόμ: 15μ
Απόσταση από το Vouhead Weather: (ΝΝΔ) 299χλμ
Ενημερώθηκε: 02/12/2022 23:50
Αίθριος
Αίθριος
 Άνεμος από calm
Άνεμος: Απνοια
Θερμοκρασία: 9°C
Σημείο δρόσου: 9°C
Υγρασία: 100%
Βαρόμετρο: 1021 hPa
Περίληψη: Αίθριος
Ορατότητα: πάνω από 10 km
2022/12/02 21:50 LGRX 022150Z 00000KT CAVOK 09/09 Q1021
LGAV - Αεροδρόμιο "Ελευθέριος Βεμιζέλος"
Αθήνα(Σπάτα) - Αττική - Ελλάδα
Γ.Πλάτ: 37.9333 - Γ.Μήκ: 23.9500 - Υψόμ: 94μ
Απόσταση από το Vouhead Weather: (ΝΝΑ) 305χλμ
Ενημερώθηκε: 03/12/2022 00:20
Διάσπαρτα νέφη
Διάσπαρτα νέφη
 Άνεμος από Μεταβλητός
Άνεμος: Μεταβλητός 2 km/h
Θερμοκρασία: 9°C
Σημείο δρόσου: 7°C
Υγρασία: 87%
Βαρόμετρο: 1023 hPa
Σύννεφα: Διάσπαρτα νέφη
Ορατότητα: 10 km
Ανάλυση Νέφωσης: Διάσπαρτα νέφη 762 m
2022/12/02 22:20 LGAV 022220Z VRB01KT 9999 FEW025 09/07 Q1023 NOSIG
 
LYNI - Αεροδρόμιο "Κονσταντίν Δε Γκρέιτ"
Νις - Νότια και Ανατολική Σερβία - Σερβία
Γ.Πλάτ: 43.3167 - Γ.Μήκ: 21.8833 - Υψόμ: 202μ
Απόσταση από το Vouhead Weather: (ΒΒΔ) 319χλμ
Ενημερώθηκε: 03/12/2022 00:00
Διάσπαρτα νέφη
Διάσπαρτα νέφη
 Άνεμος από calm
Άνεμος: Απνοια
Θερμοκρασία: 2°C
Σημείο δρόσου: 2°C
Υγρασία: 100%
Βαρόμετρο: 1024 hPa
Σύννεφα: Διάσπαρτα νέφη
Ορατότητα: 10 km
Ανάλυση Νέφωσης: Διάσπαρτα νέφη 823 m
2022/12/02 22:00 LYNI 022200Z 00000KT 9999 FEW027 02/02 Q1024 NOSIG
LGAD - Αεροδρόμιο στην Ανδραβίδα(ΒΠΑ)
Ανδραβίδα - Δυτική Ελλάδα - Ελλάδα
Γ.Πλάτ: 37.9167 - Γ.Μήκ: 21.2667 - Υψόμ: 12μ
Απόσταση από το Vouhead Weather: (ΝΝΔ) 329χλμ
Ενημερώθηκε: 03/12/2022 00:20
Διάσπαρτα νέφη
Διάσπαρτα νέφη
 Άνεμος από Μεταβλητός
Άνεμος: Μεταβλητός 6 km/h
Θερμοκρασία: 11°C
Σημείο δρόσου: 10°C
Υγρασία: 94%
Βαρόμετρο: 1021 hPa
Σύννεφα: Διάσπαρτα νέφη
Ορατότητα: 10 km
Ανάλυση Νέφωσης: Διάσπαρτα νέφη 610 m
2022/12/02 22:20 LGAD 022220Z VRB03KT 9999 FEW020 11/10 Q1021
 
LGKF - Αεροδρόμιο στην Κεφαλονιά
Κεφαλονιά - Ιόνιοι Νήσοι - Ελλάδα
Γ.Πλάτ: 38.1167 - Γ.Μήκ: 20.5000 - Υψόμ: 18μ
Απόσταση από το Vouhead Weather: (ΝΔ) 346χλμ
Ενημερώθηκε: 02/12/2022 19:50
ΜΗ ΠΡΟΣΦΑΤΟ METAR
Διάσπαρτα νέφη
Διάσπαρτα νέφη
 Άνεμος από calm
Άνεμος: Απνοια
Θερμοκρασία: 12°C
Σημείο δρόσου: 11°C
Υγρασία: 94%
Βαρόμετρο: 1020 hPa
Σύννεφα: Διάσπαρτα νέφη
Ορατότητα: 10 km
Ανάλυση Νέφωσης: Διάσπαρτα νέφη 488 m
2022/12/02 17:50 LGKF 021750Z 00000KT 9999 FEW016 12/11 Q1020
LGMT - Αεροδρόμιο "Οδυσσέας Ελύτης"
Λέσβος - Βόρειο Αιγαίο - Ελλάδα
Γ.Πλάτ: 39.0500 - Γ.Μήκ: 26.6000 - Υψόμ: 17μ
Απόσταση από το Vouhead Weather: (ΑΝΑ) 353χλμ
Ενημερώθηκε: 02/12/2022 22:50
ΜΗ ΠΡΟΣΦΑΤΟ METAR
Μερικώς νεφελώδης
Μερικώς νεφελώδης
 Άνεμος από Δ
Άνεμος: Δ 7 km/h
Θερμοκρασία: 10°C
Ψυχρότητα Ανέμου: 9°C
Σημείο δρόσου: 8°C
Υγρασία: 88%
Βαρόμετρο: 1022 hPa
Σύννεφα: Μερικώς νεφελώδης
Ορατότητα: 10 km
Ανάλυση Νέφωσης: Μερικώς νεφελώδης 762 m
2022/12/02 20:50 LGMT 022050Z 26004KT 9999 SCT025 10/08 Q1022
 
LGZA - Αεροδρόμιο "Διονύσιος Σολωμός"
Ζάκυνθος - Ιόνιοι Νήσοι - Ελλάδα
Γ.Πλάτ: 37.7500 - Γ.Μήκ: 20.8667 - Υψόμ: 3μ
Απόσταση από το Vouhead Weather: (ΝΝΔ) 362χλμ
Ενημερώθηκε: 02/12/2022 19:50
ΜΗ ΠΡΟΣΦΑΤΟ METAR
Διάσπαρτα νέφη
Διάσπαρτα νέφη
 Άνεμος από calm
Άνεμος: Απνοια
Θερμοκρασία: 12°C
Σημείο δρόσου: 11°C
Υγρασία: 94%
Βαρόμετρο: 1020 hPa
Σύννεφα: Διάσπαρτα νέφη
Ορατότητα: 10 km
Ανάλυση Νέφωσης: Διάσπαρτα νέφη 549 m
2022/12/02 17:50 LGZA 021750Z 00000KT 9999 FEW018 12/11 Q1020
LBGO - Αεροδρόμιο στη Γκόρνα Οριαχόβιτσα
Γκόρνα Οριαχόβιτσα - Βέλικο Τάρνοβο - Βουλγαρία
Γ.Πλάτ: 43.1500 - Γ.Μήκ: 25.7167 - Υψόμ: 86μ
Απόσταση από το Vouhead Weather: (ΒΑ) 366χλμ
Ενημερώθηκε: 03/12/2022 00:30
Νεφοσκεπής
Νεφοσκεπής
 Άνεμος από Δ
Άνεμος: Δ 6 km/h
Θερμοκρασία: 3°C
Σημείο δρόσου: 3°C
Υγρασία: 100%
Βαρόμετρο: 1027 hPa
Σύννεφα: Νεφοσκεπής
Ορατότητα: 10 km
Ανάλυση Νέφωσης: Διάσπαρτα νέφη 244 m
Νεφοσκεπής 305 m
2022/12/02 22:30 LBGO 022230Z AUTO 28003KT 9999 FEW008/// OVC010/// 03/03 Q1027
 
LGHI - Αεροδρόμιο "Όμηρος"
Χίος - Ιόνιοι Νήσοι - Ελλάδα
Γ.Πλάτ: 38.3167 - Γ.Μήκ: 26.1167 - Υψόμ: 4μ
Απόσταση από το Vouhead Weather: (ΝΑ) 368χλμ
Ενημερώθηκε: 02/12/2022 23:50
Διάσπαρτα νέφη
Διάσπαρτα νέφη
 Άνεμος από Ν
Άνεμος: Ν 6 km/h
Θερμοκρασία: 9°C
Σημείο δρόσου: 8°C
Υγρασία: 94%
Βαρόμετρο: 1021 hPa
Σύννεφα: Διάσπαρτα νέφη
Ορατότητα: 10 km
Ανάλυση Νέφωσης: Διάσπαρτα νέφη 610 m
2022/12/02 21:50 LGHI 022150Z 18003KT 9999 FEW020 09/08 Q1021
LYPG - Αεροδρόμιο στη Ποντγκόριτσα
Ποντγκόριτσα - Γκολούμποβτσι - Μαυροβούνιο
Γ.Πλάτ: 42.3667 - Γ.Μήκ: 19.2500 - Υψόμ: 43μ
Απόσταση από το Vouhead Weather: (ΒΔ) 369χλμ
Ενημερώθηκε: 03/12/2022 00:00
Αχλύς, Μερικώς νεφελώδης
Αχλύς, Μερικώς νεφελώδης
 Άνεμος από ΒΔ
Άνεμος: ΒΔ 4 km/h
Θερμοκρασία: 7°C
Σημείο δρόσου: 7°C
Υγρασία: 100%
Βαρόμετρο: 1022 hPa
Περίληψη: Αχλύς
Σύννεφα: Μερικώς νεφελώδης
Ορατότητα: 5 km
2022/12/02 22:00 LYPG 022200Z 32002KT 5000 BR NSC 07/07 Q1022 NOSIG
 
LGSO - Αεροδρόμιο "Δημήτριος Βικέλας"
Σύρος - Νότιο Αιγαίο - Ελλάδα
Γ.Πλάτ: 37.4167 - Γ.Μήκ: 24.9500 - Υψόμ: 72μ
Απόσταση από το Vouhead Weather: (ΝΝΑ) 390χλμ
Ενημερώθηκε: 03/12/2022 00:20
Εντονα πτωτική
Εντονα πτωτική
 Άνεμος από Β
Άνεμος: Β 9 km/h
Θερμοκρασία: 15°C
Σημείο δρόσου: 11°C
Υγρασία: 77%
Βαρόμετρο: 1022 hPa
2022/12/02 22:20 LGSO 022220Z AUTO 01005KT 330V040 //// // ////// 15/11 Q1022 RE//
LGKL - Αεροδρόμιο στη Καλαμάτα(ΒΠΑ)
Καλαμάτα - Πελοπόννησος - Ελλάδα
Γ.Πλάτ: 37.0667 - Γ.Μήκ: 22.0167 - Υψόμ: 8μ
Απόσταση από το Vouhead Weather: (ΝΝΔ) 398χλμ
Ενημερώθηκε: 03/12/2022 00:20
Εντονα πτωτική
Εντονα πτωτική
 Άνεμος από Μεταβλητός
Άνεμος: Μεταβλητός 6 km/h
Θερμοκρασία: 10°C
Σημείο δρόσου: 9°C
Υγρασία: 94%
Βαρόμετρο: 1022 hPa
2022/12/02 22:20 LGKL 022220Z AUTO VRB03KT //// // ////// 10/09 Q1022 RE//
 
LIBY - Αεροδρόμιο στη Σάντα Μαρία ντι Λέουκα
Σάντα Μαρία ντι Λέουκα - Απουλία(Λέτσε) - Ιταλία
Γ.Πλάτ: 39.8167 - Γ.Μήκ: 18.3500 - Υψόμ: 112μ
Απόσταση από το Vouhead Weather: (Δ) 402χλμ
Ενημερώθηκε: 02/12/2022 19:55
ΜΗ ΠΡΟΣΦΑΤΟ METAR
Εντονα πτωτική
Εντονα πτωτική
 
2022/12/02 17:55 LIBY 021755Z ///05KT 9999 FEW025 15/12 Q1019 RMK BKN BKN080 QUK / QUL / VIS MAR 20 KM VIS MAX 20 KM VIS MIN 9999
LGMK - Αεροδρόμιο στη Μύκονο
Μύκονος - Νότιο Αιγαίο - Ελλάδα
Γ.Πλάτ: 37.4333 - Γ.Μήκ: 25.3500 - Υψόμ: 123μ
Απόσταση από το Vouhead Weather: (ΝΝΑ) 404χλμ
Ενημερώθηκε: 02/12/2022 19:50
ΜΗ ΠΡΟΣΦΑΤΟ METAR
Διάσπαρτα νέφη
Διάσπαρτα νέφη
 Άνεμος από ΒΑ
Άνεμος: ΒΑ 7 km/h
Θερμοκρασία: 14°C
Σημείο δρόσου: 10°C
Υγρασία: 77%
Βαρόμετρο: 1021 hPa
Σύννεφα: Διάσπαρτα νέφη
Ορατότητα: 10 km
Ανάλυση Νέφωσης: Διάσπαρτα νέφη 549 m
2022/12/02 17:50 LGMK 021750Z 04004KT 9999 FEW018 14/10 Q1021
 
LYTV - Αεροδρόμιο στο Τιβάτ
Τιβάτ - Τιβάτ - Μαυροβούνιο
Γ.Πλάτ: 42.3833 - Γ.Μήκ: 18.7167 - Υψόμ: 5μ
Απόσταση από το Vouhead Weather: (ΔΒΔ) 408χλμ
Ενημερώθηκε: 03/12/2022 00:00
Αίθριος
Αίθριος
 Άνεμος από calm
Άνεμος: Απνοια
Θερμοκρασία: 8°C
Σημείο δρόσου: 8°C
Υγρασία: 100%
Βαρόμετρο: 1021 hPa
Περίληψη: Αίθριος
Ορατότητα: πάνω από 10 km
2022/12/02 22:00 LYTV 022200Z AUTO 00000KT CAVOK 08/08 Q1021
LIBN - Αεροδρόμιο στη Γκαλατίνα(ΒΠΑ)
Γκαλατίνα - Απουλία(Λέτσε) - Ιταλία
Γ.Πλάτ: 40.2167 - Γ.Μήκ: 18.1333 - Υψόμ: 61μ
Απόσταση από το Vouhead Weather: (Δ) 412χλμ
Ενημερώθηκε: 02/12/2022 23:55
Κυρίως νεφελώδης
Κυρίως νεφελώδης
 Άνεμος από ΑΝΑ
Άνεμος: ΑΝΑ 7 km/h
Θερμοκρασία: 11°C
Σημείο δρόσου: 10°C
Υγρασία: 94%
Βαρόμετρο: 1020 hPa
Σύννεφα: Κυρίως νεφελώδης
Ορατότητα: 10 km
Ανάλυση Νέφωσης: Κυρίως νεφελώδης 1524 m
2022/12/02 21:55 LIBN 022155Z 12004KT 9999 BKN050 11/10 Q1020
 
LYKV - Αεροδρόμιο στο Κράλιεβο & Λάντεβτσι
Κράλιεβο(Όμπρβα) - Σουμαντίγια και Δ. Σερβία - Σερβία
Γ.Πλάτ: 43.8167 - Γ.Μήκ: 20.5833 - Υψόμ: 209μ
Απόσταση από το Vouhead Weather: (ΒΒΔ) 412χλμ
Ενημερώθηκε: 03/12/2022 00:00
Αίθριος
Αίθριος
 Άνεμος από ΝΑ
Άνεμος: ΝΑ 6 km/h
Θερμοκρασία: 2°C
Σημείο δρόσου: 2°C
Υγρασία: 100%
Βαρόμετρο: 1023 hPa
Περίληψη: Αίθριος
Ορατότητα: πάνω από 10 km
2022/12/02 22:00 LYKV 022200Z 13003KT 070V180 CAVOK 02/02 Q1023 NOSIG
LTBU - Αεροδρόμιο στο Τσορλού(ΒΠΑ)
Τσορλού - Μαρμαράς(Τεκιρντάγ-Ραιδεστός) - Τουρκία
Γ.Πλάτ: 41.1167 - Γ.Μήκ: 27.9167 - Υψόμ: 173μ
Απόσταση από το Vouhead Weather: (Α) 420χλμ
Ενημερώθηκε: 03/12/2022 00:20
Κυρίως νεφελώδης
Κυρίως νεφελώδης
 Άνεμος από ΒΒΑ
Άνεμος: ΒΒΑ 24 km/h
Θερμοκρασία: 8°C
Ψυχρότητα Ανέμου: 4°C
Σημείο δρόσου: 6°C
Υγρασία: 87%
Βαρόμετρο: 1024 hPa
Σύννεφα: Κυρίως νεφελώδης
Ορατότητα: 10 km
Ανάλυση Νέφωσης: Μερικώς νεφελώδης 244 m
Κυρίως νεφελώδης 914 m
2022/12/02 22:20 LTBU 022220Z 02013KT 9999 SCT008 BKN030 08/06 Q1024
 
LRCV - Αεροδρόμιο στη Κραϊόβα
Κραϊόβα - Δολζ - Ρουμανία
Γ.Πλάτ: 44.3167 - Γ.Μήκ: 23.8833 - Υψόμ: 191μ
Απόσταση από το Vouhead Weather: (Β) 424χλμ
Ενημερώθηκε: 02/12/2022 23:30
Αχλύς, Νεφοσκεπής
Αχλύς, Νεφοσκεπής
 Άνεμος από Α
Άνεμος: Α 6 km/h
Περίληψη: Αχλύς
Σύννεφα: Νεφοσκεπής
Ορατότητα: 3 km
Ανάλυση Νέφωσης: Μερικώς νεφελώδης 61 m
Κυρίως νεφελώδης 122 m
Νεφοσκεπής 244 m
2022/12/02 21:30 LRCV 022130Z 10003KT 3000 BR SCT002 BKN004 OVC008 02/// Q1026
LIBR - Αεροδρόμιο στο Μπρίντιζι
(Ανεπίσημο όνομα αεροδρομίου: Ντελ Σαλέντο)
Μπρίντιζι(Πάπολα-Καζάλε) - Απουλία(Μπρίντιζι) - Ιταλία
Γ.Πλάτ: 40.6500 - Γ.Μήκ: 17.9500 - Υψόμ: 10μ
Απόσταση από το Vouhead Weather: (Δ) 424χλμ
Ενημερώθηκε: 03/12/2022 00:20
Αίθριος
Αίθριος
 Άνεμος από ΝΝΑ
Άνεμος: ΝΝΑ 11 km/h
Θερμοκρασία: 13°C
Σημείο δρόσου: 10°C
Υγρασία: 82%
Βαρόμετρο: 1019 hPa
Περίληψη: Αίθριος
Ορατότητα: πάνω από 10 km
2022/12/02 22:20 LIBR 022220Z 16006KT CAVOK 13/10 Q1019
 
LBBG - Αεροδρόμιο στo Μπουργκάς
Μπουργκάς(Σαράφοβο) - Μπουργκάς - Βουλγαρία
Γ.Πλάτ: 42.5000 - Γ.Μήκ: 27.4833 - Υψόμ: 28μ
Απόσταση από το Vouhead Weather: (ΑΒΑ) 432χλμ
Ενημερώθηκε: 03/12/2022 00:30
Νεφοσκεπής
Νεφοσκεπής
 Άνεμος από ΒΑ
Άνεμος: ΒΑ 9 km/h
Θερμοκρασία: 6°C
Ψυχρότητα Ανέμου: 4°C
Σημείο δρόσου: 3°C
Υγρασία: 81%
Βαρόμετρο: 1026 hPa
Σύννεφα: Νεφοσκεπής
Ορατότητα: 10 km
Ανάλυση Νέφωσης: Νεφοσκεπής 1463 m
2022/12/02 22:30 LBBG 022230Z AUTO 04005KT 9999 OVC048/// 06/03 Q1026 NOSIG
LGPA - Αεροδρόμιο "Παντελαίειο"
Πάρος - Νότιο Αιγαίο - Ελλάδα
Γ.Πλάτ: 37.0000 - Γ.Μήκ: 25.0667 - Υψόμ: 36μ
Απόσταση από το Vouhead Weather: (ΝΝΑ) 436χλμ
Ενημερώθηκε: 03/12/2022 00:20
Εντονα πτωτική
Εντονα πτωτική
 Άνεμος από Μεταβλητός
Άνεμος: Μεταβλητός 6 km/h
Θερμοκρασία: 13°C
Σημείο δρόσου: 10°C
Υγρασία: 82%
Βαρόμετρο: 1022 hPa
2022/12/02 22:20 LGPA 022220Z AUTO VRB03KT //// // ////// 13/10 Q1022 RE//
 
LGNX - Αεροδρόμιο στη Νάξο
Νάξος - Νότιο Αιγαίο - Ελλάδα
Γ.Πλάτ: 37.0833 - Γ.Μήκ: 25.3667 - Υψόμ: 4μ
Απόσταση από το Vouhead Weather: (ΝΝΑ) 439χλμ
Ενημερώθηκε: 02/12/2022 13:50
ΜΗ ΠΡΟΣΦΑΤΟ METAR
Μερικώς νεφελώδης
Μερικώς νεφελώδης
 Άνεμος από Β
Άνεμος: Β 7 km/h
Θερμοκρασία: 19°C
Σημείο δρόσου: 12°C
Υγρασία: 64%
Βαρόμετρο: 1020 hPa
Σύννεφα: Μερικώς νεφελώδης
Ορατότητα: 10 km
Ανάλυση Νέφωσης: Μερικώς νεφελώδης 610 m
2022/12/02 11:50 LGNX 021150Z 36004KT 9999 SCT020 19/12 Q1020
LTBJ - Αεροδρόμιο "Αντνάν Μεντερές"
Σμύρνη - Αιγαίο(Σμύρνη) - Τουρκία
Γ.Πλάτ: 38.2667 - Γ.Μήκ: 27.1333 - Υψόμ: 120μ
Απόσταση από το Vouhead Weather: (ΝΑ) 439χλμ
Ενημερώθηκε: 03/12/2022 00:20
Ομίχλη, Νεφοσκεπής
Ομίχλη, Νεφοσκεπής
 Άνεμος από ΝΑ
Άνεμος: ΝΑ 4 km/h
Θερμοκρασία: 10°C
Σημείο δρόσου: 10°C
Υγρασία: 100%
Βαρόμετρο: 1021 hPa
Περίληψη: Ομίχλη
Σύννεφα: Νεφοσκεπής
Ορατότητα: 0 km
Ανάλυση Νέφωσης: Νεφοσκεπής 30 m
2022/12/02 22:20 LTBJ 022220Z 14002KT 0300 R34/0275N R16/0325U FG VV001 10/10 Q1021 NOSIG
 
LDDU - Αεροδρόμιο στο Ντουμπρόβνικ
Ντουμπρόβνικ - Ντουμπρόβνικ Νερέτβα - Κροατία
Γ.Πλάτ: 42.5667 - Γ.Μήκ: 18.2667 - Υψόμ: 165μ
Απόσταση από το Vouhead Weather: (ΔΒΔ) 450χλμ
Ενημερώθηκε: 03/12/2022 00:30
Αίθριος
Αίθριος
 Άνεμος από Α
Άνεμος: Α 17 km/h
Θερμοκρασία: 11°C
Σημείο δρόσου: 7°C
Υγρασία: 77%
Βαρόμετρο: 1020 hPa
Περίληψη: Αίθριος
Ορατότητα: πάνω από 10 km
2022/12/02 22:30 LDDU 022230Z 09009KT CAVOK 11/07 Q1020
LYUZ - Αεροδρόμιο στην Ούζιτσε & Πόνικβε
(Ανεπίσημο όνομα αεροδρομίου: Λέπα Γκλάβα)
Ούζιτσε - Σουμαντίγια και Δ. Σερβία - Σερβία
Γ.Πλάτ: 43.9000 - Γ.Μήκ: 19.7000 - Υψόμ: 904μ
Απόσταση από το Vouhead Weather: (ΒΔ) 458χλμ
Ενημερώθηκε: 04/11/2021 01:30
ΜΗ ΠΡΟΣΦΑΤΟ METAR
Εντονα πτωτική
Εντονα πτωτική
 Άνεμος από Μεταβλητός
Άνεμος: Μεταβλητός 9 km/h
Θερμοκρασία: 14°C
Σημείο δρόσου: 7°C
Υγρασία: 63%
Βαρόμετρο: 1010 hPa
Ορατότητα: 10 km
2021/11/03 23:30 LYUZ 032330Z AUTO VRB05KT 9999 ////// 14/07 Q1010
 
LGSM - Αεροδρόμιο "Αρίσταρχος ο Σάμιος"
Σάμος - Βόρειο Αιγαίο - Ελλάδα
Γ.Πλάτ: 37.6833 - Γ.Μήκ: 26.9167 - Υψόμ: 6μ
Απόσταση από το Vouhead Weather: (ΝΑ) 467χλμ
Ενημερώθηκε: 02/12/2022 22:50
ΜΗ ΠΡΟΣΦΑΤΟ METAR
Μερικώς νεφελώδης
Μερικώς νεφελώδης
 Άνεμος από calm
Άνεμος: Απνοια
Θερμοκρασία: 13°C
Σημείο δρόσου: 12°C
Υγρασία: 94%
Βαρόμετρο: 1021 hPa
Σύννεφα: Μερικώς νεφελώδης
Ορατότητα: 10 km
Ανάλυση Νέφωσης: Μερικώς νεφελώδης 610 m
2022/12/02 20:50 LGSM 022050Z 00000KT 9999 SCT020 13/12 Q1021
LIBG - Αεροδρόμιο "Μαρτσέλο Αρλόττα"
Μουντιάζι(Ταράντο-Γκροτάλιε)-Απουλία(Ταράντο)-Ιταλία
Γ.Πλάτ: 40.5167 - Γ.Μήκ: 17.3833 - Υψόμ: 69μ
Απόσταση από το Vouhead Weather: (Δ) 472χλμ
Ενημερώθηκε: 02/12/2022 20:50
ΜΗ ΠΡΟΣΦΑΤΟ METAR
Μερικώς νεφελώδης
Μερικώς νεφελώδης
 Άνεμος από Α
Άνεμος: Α 9 km/h
Θερμοκρασία: 12°C
Σημείο δρόσου: 11°C
Υγρασία: 94%
Βαρόμετρο: 1019 hPa
Σύννεφα: Μερικώς νεφελώδης
Ορατότητα: 10 km
Ανάλυση Νέφωσης: Μερικώς νεφελώδης 610 m
2022/12/02 18:50 LIBG 021850Z 10005KT 9999 SCT020 12/11 Q1019
 
LGKC - Αεροδρόμιο στα Κύθηρα
Κύθηρα(Επτάνησα) - Αττική(Νήσοι) - Ελλάδα
Γ.Πλάτ: 36.2833 - Γ.Μήκ: 23.0167 - Υψόμ: 319μ
Απόσταση από το Vouhead Weather: (Ν) 476χλμ
Ενημερώθηκε: 01/12/2022 17:50
ΜΗ ΠΡΟΣΦΑΤΟ METAR
Κυρίως νεφελώδης
Κυρίως νεφελώδης
 Άνεμος από ΝΔ
Άνεμος: ΝΔ 19 km/h
Θερμοκρασία: 13°C
Σημείο δρόσου: 12°C
Υγρασία: 94%
Βαρόμετρο: 1014 hPa
Σύννεφα: Κυρίως νεφελώδης
Ορατότητα: 10 km
Ανάλυση Νέφωσης: Διάσπαρτα νέφη 549 m
Κυρίως νεφελώδης 762 m
2022/12/01 15:50 LGKC 011550Z 23010KT 9999 FEW018 BKN025 13/12 Q1014
LTBA - Αεροδρόμιο "Ατατούρκ"
Κωνσταντινούπολη - Μαρμαράς(Κων/πολη) - Τουρκία
Γ.Πλάτ: 40.9667 - Γ.Μήκ: 28.8167 - Υψόμ: 37μ
Απόσταση από το Vouhead Weather: (Α) 494χλμ
Ενημερώθηκε: 03/12/2022 00:20
Κυρίως νεφελώδης
Κυρίως νεφελώδης
 Άνεμος από Β
Άνεμος: Β 24 km/h
Θερμοκρασία: 10°C
Ψυχρότητα Ανέμου: 7°C
Σημείο δρόσου: 8°C
Υγρασία: 88%
Βαρόμετρο: 1024 hPa
Σύννεφα: Κυρίως νεφελώδης
Ορατότητα: 10 km
Ανάλυση Νέφωσης: Κυρίως νεφελώδης 305 m
Κυρίως νεφελώδης 914 m
2022/12/02 22:20 LTBA 022220Z 36013KT 9999 BKN010 BKN030 10/08 Q1024
   Μην χρησιμοποιήσετε τα στοιχεία για αποφάσεις που αφορούν ζωές και πάσης φύσεως ιδιοκτησίες  
ΠΗΓΑΙΝΕΤΕ ΣΤΗΝ ΙΟΝΙΑ ΠΗΓΑΙΝΕΤΕ ΣΤΗΝ ΚΑΛΑΜΑΤΑ ΠΗΓΑΙΝΕΤΕ ΣΤΗΝ ΚΗΦΙΣΙΑ ΠΗΓΑΙΝΕΤΕ ΣΤΗΝ ΣΥΡΟ ΠΗΓΑΙΝΕΤΕ ΣΤΗΝ ΔΕΞΑΜΕΝΗ (BOLTEK) ΠΗΓΑΙΝΕΤΕ ΣΤΗΝ ΔΕΞΑΜΕΝΗ (LR) ΠΗΓΑΙΝΕΤΕ ΣΤΗΝ ΛΑΡΙΣΑ Γενική Γραμματεία Πολιτικής Προστασίας Ενιαίος Ευρωπαϊκός Αριθμός Έκτακτης Ανάγκης Βίντεο για το Καστελλόριζο(Μεγίστη) από τα αρχεία της ΕΡΤ Ιστοσελίδα Δήμου Μεγίστης Δείτε το μεγαλύτερο